Time;durP1;ratioP1;P1;durP2;ratioP2;P2;SDS_P1;SDS_P2;PMS_P1;PMS_P2;Temp;Humidity;BMP_temperature;BMP_pressure;BME280_temperature;BME280_humidity;BME280_pressure;Samples;Min_cycle;Max_cycle;Signal;HPM_P1;HPM_P2
2023/11/30 00:00:34;;;;;;;64.65;30.77;;;;;;;1.46;100.00;100199.47;5211906;28;20024;-71
2023/11/30 00:03:05;;;;;;;60.78;28.52;;;;;;;1.44;100.00;100201.38;5214524;28;20021;-71
2023/11/30 00:05:35;;;;;;;53.72;26.73;;;;;;;1.42;100.00;100197.19;5215369;28;20014;-71
2023/11/30 00:08:06;;;;;;;63.45;29.75;;;;;;;1.42;100.00;100199.81;5210853;28;20040;-71
2023/11/30 00:10:36;;;;;;;61.30;28.50;;;;;;;1.43;100.00;100196.22;5213522;28;20549;-71
2023/11/30 00:13:07;;;;;;;60.00;28.83;;;;;;;1.40;100.00;100191.16;5216028;28;20033;-70
2023/11/30 00:15:37;;;;;;;51.95;25.75;;;;;;;1.38;100.00;100190.47;5216706;28;20025;-71
2023/11/30 00:18:07;;;;;;;55.42;24.92;;;;;;;1.37;100.00;100191.44;5214802;28;20493;-71
2023/11/30 00:20:38;;;;;;;61.92;27.45;;;;;;;1.39;100.00;100181.56;5206823;28;20032;-71
2023/11/30 00:23:08;;;;;;;54.83;26.55;;;;;;;1.39;100.00;100176.28;5209560;28;20041;-71
2023/11/30 00:25:39;;;;;;;65.68;28.60;;;;;;;1.38;100.00;100172.78;5211339;28;20025;-71
2023/11/30 00:28:09;;;;;;;56.25;26.90;;;;;;;1.39;100.00;100168.34;5215172;28;20539;-71
2023/11/30 00:30:40;;;;;;;56.53;27.27;;;;;;;1.38;100.00;100167.50;5211416;28;20025;-71
2023/11/30 00:33:11;;;;;;;61.53;29.15;;;;;;;1.41;100.00;100161.16;5213761;28;20393;-71
2023/11/30 00:35:41;;;;;;;61.45;28.15;;;;;;;1.44;100.00;100163.53;5213836;28;20028;-71
2023/11/30 00:38:12;;;;;;;63.08;29.40;;;;;;;1.45;100.00;100168.69;5211778;28;20107;-71
2023/11/30 00:40:42;;;;;;;61.53;29.13;;;;;;;1.44;100.00;100161.72;5208257;28;20019;-71
2023/11/30 00:43:13;;;;;;;58.13;28.10;;;;;;;1.43;100.00;100164.50;5211517;28;20052;-71
2023/11/30 00:45:43;;;;;;;59.25;28.75;;;;;;;1.40;100.00;100157.63;5213378;28;20060;-71
2023/11/30 00:48:14;;;;;;;61.47;29.15;;;;;;;1.39;100.00;100155.13;5216135;28;20025;-71
2023/11/30 00:50:44;;;;;;;64.75;31.05;;;;;;;1.39;100.00;100150.69;5217733;28;20021;-71
2023/11/30 00:53:15;;;;;;;65.68;30.70;;;;;;;1.37;100.00;100154.44;5209831;28;20140;-71
2023/11/30 00:55:45;;;;;;;55.67;27.27;;;;;;;1.29;100.00;100158.50;5209519;28;20376;-71
2023/11/30 00:58:16;;;;;;;59.78;28.98;;;;;;;1.24;100.00;100150.09;5211649;28;20032;-71
2023/11/30 01:00:46;;;;;;;60.78;28.75;;;;;;;1.16;100.00;100152.56;5214815;28;20021;-71
2023/11/30 01:03:17;;;;;;;62.45;27.63;;;;;;;1.12;100.00;100142.34;5204293;28;20463;-71
2023/11/30 01:05:47;;;;;;;63.50;28.70;;;;;;;1.03;100.00;100133.34;5216156;28;20078;-71
2023/11/30 01:08:18;;;;;;;62.25;28.02;;;;;;;0.97;100.00;100133.84;5213943;28;20032;-70
2023/11/30 01:10:48;;;;;;;57.63;27.15;;;;;;;0.93;100.00;100135.03;5214643;28;20056;-71
2023/11/30 01:13:19;;;;;;;66.15;29.13;;;;;;;0.89;100.00;100136.25;5209906;28;20443;-71
2023/11/30 01:15:49;;;;;;;64.47;27.83;;;;;;;0.87;100.00;100125.81;5208484;28;20495;-71
2023/11/30 01:18:19;;;;;;;66.03;29.38;;;;;;;0.84;100.00;100133.97;5212551;28;20021;-71
2023/11/30 01:20:50;;;;;;;63.60;29.17;;;;;;;0.84;100.00;100136.59;5208284;28;20460;-71
2023/11/30 01:23:20;;;;;;;66.65;30.75;;;;;;;0.86;100.00;100136.50;5208899;28;20387;-71
2023/11/30 01:25:51;;;;;;;61.22;28.95;;;;;;;0.83;100.00;100140.22;5216096;28;20036;-71
2023/11/30 01:28:21;;;;;;;62.47;29.35;;;;;;;0.83;100.00;100137.56;5214552;28;20372;-71
2023/11/30 01:30:52;;;;;;;68.07;30.92;;;;;;;0.75;100.00;100124.13;5215076;28;20510;-70
2023/11/30 01:33:22;;;;;;;67.18;30.92;;;;;;;0.69;100.00;100128.09;5212733;28;20025;-71
2023/11/30 01:35:53;;;;;;;73.10;31.23;;;;;;;0.63;100.00;100123.28;5216639;28;20029;-71
2023/11/30 01:38:24;;;;;;;72.43;33.10;;;;;;;0.58;100.00;100125.47;5216105;28;20052;-71
2023/11/30 01:40:54;;;;;;;71.70;29.15;;;;;;;0.55;100.00;100141.53;5206195;28;20024;-70
2023/11/30 01:43:26;;;;;;;65.93;29.00;;;;;;;0.51;100.00;100140.94;5208939;28;20025;-71
2023/11/30 01:45:57;;;;;;;65.35;29.42;;;;;;;0.48;100.00;100142.97;5207201;28;20464;-70
2023/11/30 01:48:27;;;;;;;67.15;29.38;;;;;;;0.43;100.00;100137.22;5212536;28;20057;-70
2023/11/30 01:50:58;;;;;;;64.18;28.67;;;;;;;0.37;100.00;100141.16;5209407;28;20292;-70
2023/11/30 01:53:29;;;;;;;66.13;29.92;;;;;;;0.37;100.00;100140.31;5212258;28;20025;-70
2023/11/30 01:56:00;;;;;;;67.97;29.25;;;;;;;0.34;100.00;100137.91;5207820;28;20021;-70
2023/11/30 01:58:30;;;;;;;78.78;32.15;;;;;;;0.33;100.00;100130.97;5205652;28;20037;-70
2023/11/30 02:01:01;;;;;;;72.90;30.60;;;;;;;0.32;100.00;100138.03;5211288;28;20056;-70
2023/11/30 02:03:32;;;;;;;63.25;28.80;;;;;;;0.32;100.00;100137.22;5209970;28;20496;-70
2023/11/30 02:06:02;;;;;;;67.63;29.42;;;;;;;0.32;100.00;100135.41;5212442;28;20064;-70
2023/11/30 02:08:43;;;;;;;65.32;28.58;;;;;;;0.34;100.00;100128.19;5207806;28;20479;-70
2023/11/30 02:11:14;;;;;;;72.80;30.85;;;;;;;0.35;100.00;100124.63;5209279;28;20035;-70
2023/11/30 02:13:56;;;;;;;67.10;28.25;;;;;;;0.38;100.00;100128.81;5208868;28;20511;-70
2023/11/30 02:16:29;;;;;;;63.30;28.05;;;;;;;0.43;100.00;100134.56;5206560;28;20035;-70
2023/11/30 02:19:00;;;;;;;59.58;26.67;;;;;;;0.45;100.00;100135.28;5211799;28;20029;-70
2023/11/30 02:21:30;;;;;;;59.92;26.33;;;;;;;0.43;100.00;100132.75;5212639;28;20507;-70
2023/11/30 02:24:01;;;;;;;61.25;26.77;;;;;;;0.41;100.00;100128.59;5218333;28;20494;-70
2023/11/30 02:26:32;;;;;;;60.92;29.02;;;;;;;0.36;100.00;100128.09;5218172;28;20108;-70
2023/11/30 02:29:03;;;;;;;68.30;29.98;;;;;;;0.33;100.00;100125.69;5213238;28;20024;-70
2023/11/30 02:31:34;;;;;;;59.17;27.23;;;;;;;0.29;100.00;100118.97;5212989;28;20032;-70
2023/11/30 02:34:04;;;;;;;62.58;28.70;;;;;;;0.26;100.00;100114.78;5216770;28;20025;-70
2023/11/30 02:36:35;;;;;;;61.72;27.88;;;;;;;0.22;100.00;100106.25;5220270;28;20033;-70
2023/11/30 02:39:05;;;;;;;72.22;29.52;;;;;;;0.19;100.00;100109.09;5217684;28;20056;-70
2023/11/30 02:41:36;;;;;;;66.43;29.48;;;;;;;0.17;100.00;100102.28;5213491;28;20021;-70
2023/11/30 02:44:08;;;;;;;65.82;28.48;;;;;;;0.15;100.00;100106.81;5216255;28;20033;-70
2023/11/30 02:46:38;;;;;;;60.17;25.75;;;;;;;0.10;100.00;100095.78;5213201;28;20239;-70
2023/11/30 02:49:09;;;;;;;67.72;27.13;;;;;;;0.06;100.00;100100.47;5215968;28;20461;-70
2023/11/30 02:51:39;;;;;;;56.40;24.25;;;;;;;0.05;100.00;100106.72;5220914;28;20420;-70
2023/11/30 02:54:10;;;;;;;60.58;24.60;;;;;;;0.08;100.00;100106.47;5215261;28;20397;-70
2023/11/30 02:56:41;;;;;;;63.72;26.92;;;;;;;0.13;100.00;100106.09;5214392;28;20030;-70
2023/11/30 02:59:11;;;;;;;62.80;27.42;;;;;;;0.16;100.00;100103.25;5217774;28;20037;-70
2023/11/30 03:01:43;;;;;;;60.55;27.90;;;;;;;0.19;100.00;100097.72;5219932;28;20025;-70
2023/11/30 03:04:14;;;;;;;59.03;24.75;;;;;;;0.17;100.00;100097.84;5216221;28;20028;-70
2023/11/30 03:06:48;;;;;;;59.13;26.05;;;;;;;0.23;100.00;100102.66;5217642;28;20029;-70
2023/11/30 03:09:18;;;;;;;62.60;25.60;;;;;;;0.27;100.00;100097.16;5218226;28;20029;-70
2023/11/30 03:11:49;;;;;;;61.35;28.17;;;;;;;0.28;100.00;100097.00;5217545;28;20025;-70
2023/11/30 03:14:20;;;;;;;56.10;25.52;;;;;;;0.32;100.00;100097.63;5212425;28;20025;-70
2023/11/30 03:16:50;;;;;;;61.97;26.92;;;;;;;0.33;100.00;100100.13;5216518;28;20036;-70
2023/11/30 03:19:22;;;;;;;63.67;28.33;;;;;;;0.42;100.00;100104.69;5211816;28;20014;-70
2023/11/30 03:21:54;;;;;;;60.17;26.42;;;;;;;0.50;100.00;100101.44;5215647;28;20032;-70
2023/11/30 03:24:24;;;;;;;66.32;27.42;;;;;;;0.58;100.00;100099.06;5220270;28;20032;-70
2023/11/30 03:26:56;;;;;;;63.33;26.90;;;;;;;0.65;100.00;100096.78;5219120;28;20622;-70
2023/11/30 03:29:26;;;;;;;58.72;26.77;;;;;;;0.71;100.00;100094.50;5214457;28;20025;-70
2023/11/30 03:31:57;;;;;;;56.35;24.58;;;;;;;0.75;100.00;100093.31;5220535;28;20021;-70
2023/11/30 03:34:27;;;;;;;61.50;26.83;;;;;;;0.83;100.00;100092.69;5212752;28;20029;-70
2023/11/30 03:36:58;;;;;;;62.55;26.20;;;;;;;0.83;100.00;100100.59;5218130;28;20024;-70
2023/11/30 03:39:28;;;;;;;54.47;24.73;;;;;;;0.81;100.00;100094.63;5216529;28;20031;-70
2023/11/30 03:41:59;;;;;;;64.95;27.20;;;;;;;0.78;100.00;100090.41;5212669;28;20020;-70
2023/11/30 03:44:29;;;;;;;54.55;24.45;;;;;;;0.75;100.00;100097.72;5213032;28;20036;-70
2023/11/30 03:47:00;;;;;;;62.83;26.58;;;;;;;0.71;100.00;100101.59;5215009;28;20127;-70
2023/11/30 03:49:30;;;;;;;62.35;26.75;;;;;;;0.63;100.00;100096.91;5210888;28;20025;-70
2023/11/30 03:52:01;;;;;;;53.65;25.15;;;;;;;0.53;100.00;100093.31;5213799;28;20074;-70
2023/11/30 03:54:31;;;;;;;53.55;25.13;;;;;;;0.45;100.00;100100.97;5210328;28;20029;-70
2023/11/30 03:57:02;;;;;;;56.35;23.50;;;;;;;0.43;100.00;100084.44;5212737;28;20364;-70
2023/11/30 03:59:32;;;;;;;50.33;22.30;;;;;;;0.31;100.00;100082.75;5222086;28;20474;-70
2023/11/30 04:02:03;;;;;;;57.40;23.48;;;;;;;0.24;100.00;100079.75;5214998;28;20043;-70
2023/11/30 04:04:37;;;;;;;58.00;22.70;;;;;;;0.18;100.00;100077.59;5216239;28;20387;-70
2023/11/30 04:07:08;;;;;;;59.22;24.42;;;;;;;0.11;100.00;100077.22;5210348;28;20365;-70
2023/11/30 04:09:38;;;;;;;74.68;27.13;;;;;;;0.06;100.00;100074.09;5213640;28;20037;-70
2023/11/30 04:12:09;;;;;;;71.85;27.00;;;;;;;-0.02;100.00;100073.84;5219424;28;20029;-70
2023/11/30 04:14:39;;;;;;;77.50;27.17;;;;;;;-0.06;100.00;100075.03;5218236;28;20016;-70
2023/11/30 04:17:10;;;;;;;79.97;26.08;;;;;;;-0.11;100.00;100083.28;5212856;28;20090;-70
2023/11/30 04:19:41;;;;;;;70.43;28.48;;;;;;;-0.17;100.00;100080.28;5213462;28;20017;-70
2023/11/30 04:22:12;;;;;;;67.45;24.55;;;;;;;-0.22;100.00;100077.16;5212155;28;20025;-70
2023/11/30 04:24:43;;;;;;;74.97;26.98;;;;;;;-0.23;100.00;100075.47;5212858;28;20098;-70
2023/11/30 04:27:13;;;;;;;71.97;26.35;;;;;;;-0.24;100.00;100069.38;5215651;28;20024;-70
2023/11/30 04:29:43;;;;;;;74.93;26.73;;;;;;;-0.28;100.00;100071.38;5211811;28;20041;-70
2023/11/30 04:32:14;;;;;;;70.63;27.08;;;;;;;-0.29;100.00;100076.78;5215593;28;20021;-70
2023/11/30 04:34:44;;;;;;;75.18;28.08;;;;;;;-0.30;100.00;100075.13;5213241;28;20036;-70
2023/11/30 04:37:15;;;;;;;64.20;25.90;;;;;;;-0.39;100.00;100075.81;5213342;28;20480;-70
2023/11/30 04:39:45;;;;;;;81.13;28.33;;;;;;;-0.37;100.00;100073.88;5217652;28;20028;-71
2023/11/30 04:42:16;;;;;;;75.15;27.90;;;;;;;-0.44;100.00;100075.31;5210610;28;20025;-70
2023/11/30 04:44:47;;;;;;;78.88;27.83;;;;;;;-0.48;100.00;100073.84;5213879;28;20032;-70
2023/11/30 04:47:18;;;;;;;100.93;35.10;;;;;;;-0.45;100.00;100070.97;5211369;28;20029;-70
2023/11/30 04:49:48;;;;;;;92.03;30.92;;;;;;;-0.45;100.00;100076.22;5212231;28;20403;-70
2023/11/30 04:52:19;;;;;;;75.40;29.70;;;;;;;-0.46;100.00;100072.75;5211304;28;20034;-70
2023/11/30 04:54:49;;;;;;;70.22;28.50;;;;;;;-0.44;100.00;100067.41;5209501;28;20035;-70
2023/11/30 04:57:20;;;;;;;61.55;25.17;;;;;;;-0.45;100.00;100071.84;5211940;28;20029;-70
2023/11/30 04:59:51;;;;;;;67.32;25.45;;;;;;;-0.49;100.00;100064.25;5208725;28;20242;-70
2023/11/30 05:02:21;;;;;;;64.55;24.38;;;;;;;-0.60;100.00;100054.53;5211044;28;20032;-70
2023/11/30 05:04:52;;;;;;;115.57;28.55;;;;;;;-0.64;100.00;100058.34;5218890;28;20029;-70
2023/11/30 05:07:22;;;;;;;97.15;27.75;;;;;;;-0.62;100.00;100059.91;5207498;28;20033;-70
2023/11/30 05:09:53;;;;;;;100.22;29.75;;;;;;;-0.57;100.00;100064.81;5216714;28;20025;-70
2023/11/30 05:12:23;;;;;;;92.88;29.85;;;;;;;-0.54;100.00;100064.59;5216644;28;20033;-70
2023/11/30 05:14:53;;;;;;;92.93;31.30;;;;;;;-0.53;100.00;100064.47;5216303;28;20017;-70
2023/11/30 05:17:24;;;;;;;93.28;27.75;;;;;;;-0.56;100.00;100064.69;5214389;28;20035;-70
2023/11/30 05:19:54;;;;;;;83.88;26.80;;;;;;;-0.59;100.00;100064.94;5210397;28;20021;-70
2023/11/30 05:22:25;;;;;;;73.22;25.30;;;;;;;-0.61;100.00;100071.28;5214091;28;20087;-70
2023/11/30 05:24:55;;;;;;;86.57;26.15;;;;;;;-0.64;100.00;100071.50;5218333;28;20017;-70
2023/11/30 05:27:26;;;;;;;91.88;28.90;;;;;;;-0.66;100.00;100062.88;5219793;28;20028;-70
2023/11/30 05:29:56;;;;;;;62.72;25.83;;;;;;;-0.70;100.00;100062.28;5212365;28;20020;-71
2023/11/30 05:32:28;;;;;;;67.43;26.90;;;;;;;-0.69;100.00;100063.94;5216180;28;20395;-71
2023/11/30 05:34:58;;;;;;;81.18;28.25;;;;;;;-0.61;100.00;100060.72;5211742;28;20079;-71
2023/11/30 05:37:29;;;;;;;77.45;28.38;;;;;;;-0.58;100.00;100066.63;5212746;28;20029;-71
2023/11/30 05:39:59;;;;;;;74.90;27.90;;;;;;;-0.57;100.00;100068.28;5211616;28;20028;-71
2023/11/30 05:42:30;;;;;;;68.85;27.42;;;;;;;-0.58;100.00;100071.06;5208981;28;20465;-71
2023/11/30 05:45:02;;;;;;;69.53;26.77;;;;;;;-0.61;100.00;100064.19;5217373;28;20391;-71
2023/11/30 05:47:32;;;;;;;74.90;27.42;;;;;;;-0.60;100.00;100057.16;5210502;28;20083;-71
2023/11/30 05:50:04;;;;;;;84.43;27.90;;;;;;;-0.58;100.00;100061.34;5210290;28;20457;-71
2023/11/30 05:52:35;;;;;;;101.05;30.33;;;;;;;-0.61;100.00;100060.72;5218446;28;20082;-71
2023/11/30 05:55:07;;;;;;;82.53;27.92;;;;;;;-0.63;100.00;100066.13;5216058;28;20025;-70
2023/11/30 05:57:38;;;;;;;70.88;26.10;;;;;;;-0.61;100.00;100063.38;5209522;28;20051;-71
2023/11/30 06:00:10;;;;;;;109.03;30.27;;;;;;;-0.56;100.00;100069.97;5205364;28;20355;-71
2023/11/30 06:02:40;;;;;;;194.00;36.22;;;;;;;-0.56;100.00;100079.66;5219532;28;20033;-70
2023/11/30 06:05:11;;;;;;;101.60;28.75;;;;;;;-0.55;100.00;100074.31;5213770;28;20087;-71
2023/11/30 06:07:44;;;;;;;134.25;31.42;;;;;;;-0.50;100.00;100075.72;5212292;28;20550;-71
2023/11/30 06:10:15;;;;;;;115.55;30.27;;;;;;;-0.50;100.00;100067.84;5212463;28;20034;-71
2023/11/30 06:12:46;;;;;;;171.63;33.67;;;;;;;-0.50;100.00;100070.47;5218084;28;20051;-71
2023/11/30 06:15:16;;;;;;;94.35;28.33;;;;;;;-0.56;100.00;100077.88;5213284;28;20032;-70
2023/11/30 06:17:47;;;;;;;112.70;30.38;;;;;;;-0.57;100.00;100062.19;5217457;28;20025;-71
2023/11/30 06:20:17;;;;;;;88.47;27.55;;;;;;;-0.54;100.00;100069.88;5210016;28;20036;-71
2023/11/30 06:22:48;;;;;;;165.48;32.28;;;;;;;-0.55;100.00;100065.56;5215486;28;20041;-71
2023/11/30 06:25:18;;;;;;;84.95;28.08;;;;;;;-0.55;100.00;100076.94;5214120;28;20029;-70
2023/11/30 06:27:49;;;;;;;86.55;27.58;;;;;;;-0.52;100.00;100068.78;5212508;28;20032;-70
2023/11/30 06:30:19;;;;;;;79.35;28.13;;;;;;;-0.54;100.00;100077.78;5207362;28;20022;-71
2023/11/30 06:32:50;;;;;;;98.10;27.20;;;;;;;-0.52;100.00;100075.84;5217311;28;20029;-71
2023/11/30 06:35:20;;;;;;;100.05;26.85;;;;;;;-0.54;100.00;100075.16;5215958;28;20079;-71
2023/11/30 06:37:51;;;;;;;166.15;29.63;;;;;;;-0.59;100.00;100070.22;5215061;28;20033;-71
2023/11/30 06:40:21;;;;;;;64.93;23.85;;;;;;;-0.62;100.00;100073.06;5208487;28;20029;-71
2023/11/30 06:42:52;;;;;;;88.40;27.30;;;;;;;-0.64;100.00;100075.00;5197883;28;20109;-71
2023/11/30 06:45:22;;;;;;;68.30;26.23;;;;;;;-0.62;100.00;100078.34;5205138;28;20067;-71
2023/11/30 06:47:53;;;;;;;86.25;26.00;;;;;;;-0.60;100.00;100078.25;5214831;28;20398;-71
2023/11/30 06:50:23;;;;;;;118.90;29.92;;;;;;;-0.56;100.00;100084.94;5207067;28;20035;-71
2023/11/30 06:52:54;;;;;;;77.20;27.83;;;;;;;-0.52;100.00;100078.50;5216497;28;20082;-71
2023/11/30 06:55:24;;;;;;;95.78;31.15;;;;;;;-0.49;100.00;100086.19;5211590;28;20141;-71
2023/11/30 06:57:55;;;;;;;153.25;31.48;;;;;;;-0.52;100.00;100075.84;5209413;28;20048;-71
2023/11/30 07:00:26;;;;;;;173.90;29.05;;;;;;;-0.57;100.00;100081.47;5213330;28;20141;-71
2023/11/30 07:02:57;;;;;;;146.05;30.17;;;;;;;-0.59;100.00;100078.13;5217805;28;20021;-71
2023/11/30 07:05:27;;;;;;;75.20;27.02;;;;;;;-0.56;100.00;100082.31;5212072;28;20032;-71
2023/11/30 07:07:58;;;;;;;114.43;29.17;;;;;;;-0.51;100.00;100080.16;5214918;28;20017;-71
2023/11/30 07:10:29;;;;;;;138.43;30.05;;;;;;;-0.51;100.00;100082.81;5213434;28;20071;-71
2023/11/30 07:12:59;;;;;;;125.18;29.27;;;;;;;-0.58;100.00;100082.44;5223193;28;20467;-71
2023/11/30 07:15:30;;;;;;;164.23;29.60;;;;;;;-0.66;100.00;100084.78;5215004;28;20451;-71
2023/11/30 07:18:00;;;;;;;67.65;24.98;;;;;;;-0.68;100.00;100077.97;5214709;28;20586;-71
2023/11/30 07:20:31;;;;;;;80.53;27.50;;;;;;;-0.70;100.00;100088.63;5210389;28;20079;-71
2023/11/30 07:23:03;;;;;;;71.28;26.20;;;;;;;-0.66;100.00;100090.03;5217842;28;20025;-71
2023/11/30 07:25:34;;;;;;;74.68;26.38;;;;;;;-0.65;100.00;100094.38;5218065;28;20112;-71
2023/11/30 07:28:04;;;;;;;57.10;23.48;;;;;;;-0.68;100.00;100086.69;5216912;28;20532;-70
2023/11/30 07:30:40;;;;;;;67.10;27.45;;;;;;;-0.62;100.00;100085.41;5219222;28;20361;-71
2023/11/30 07:33:11;;;;;;;83.60;29.15;;;;;;;-0.62;100.00;100080.97;5214044;28;20047;-71
2023/11/30 07:35:42;;;;;;;67.78;27.50;;;;;;;-0.57;100.00;100091.16;5218421;28;20034;-71
2023/11/30 07:38:13;;;;;;;73.07;27.10;;;;;;;-0.53;100.00;100090.84;5211304;28;20428;-70
2023/11/30 07:40:43;;;;;;;68.07;27.95;;;;;;;-0.49;100.00;100091.47;5210660;28;20032;-71
2023/11/30 07:43:14;;;;;;;67.45;28.05;;;;;;;-0.42;100.00;100090.03;5216991;28;20029;-70
2023/11/30 07:45:44;;;;;;;67.00;28.98;;;;;;;-0.38;100.00;100077.47;5212880;28;20272;-71
2023/11/30 07:48:15;;;;;;;69.30;27.63;;;;;;;-0.34;100.00;100086.84;5217982;28;20051;-71
2023/11/30 07:50:45;;;;;;;90.00;27.77;;;;;;;-0.28;100.00;100084.56;5216446;28;20423;-71
2023/11/30 07:53:16;;;;;;;117.40;28.30;;;;;;;-0.25;100.00;100083.50;5218708;28;20091;-71
2023/11/30 07:55:46;;;;;;;130.70;27.95;;;;;;;-0.20;100.00;100093.69;5215355;28;20028;-71
2023/11/30 07:58:17;;;;;;;78.68;26.92;;;;;;;-0.18;100.00;100089.16;5210754;28;20032;-71
2023/11/30 08:00:47;;;;;;;117.03;31.48;;;;;;;-0.16;100.00;100090.69;5234270;28;20025;-71
2023/11/30 08:03:18;;;;;;;85.78;29.02;;;;;;;-0.09;100.00;100093.72;5220556;28;20028;-71
2023/11/30 08:05:49;;;;;;;117.90;30.08;;;;;;;-0.04;100.00;100102.97;5218896;28;20510;-71
2023/11/30 08:08:19;;;;;;;111.90;29.77;;;;;;;0.03;100.00;100105.13;5211847;28;20025;-71
2023/11/30 08:10:50;;;;;;;153.13;30.80;;;;;;;0.06;100.00;100103.13;5216248;28;20029;-71
2023/11/30 08:13:21;;;;;;;245.25;38.45;;;;;;;0.09;100.00;100100.22;5211797;28;20045;-71
2023/11/30 08:15:52;;;;;;;99.22;27.98;;;;;;;0.21;100.00;100101.09;5215964;28;20032;-71
2023/11/30 08:18:24;;;;;;;108.43;28.20;;;;;;;0.19;100.00;100101.19;5215406;28;20033;-71
2023/11/30 08:20:58;;;;;;;106.47;27.55;;;;;;;0.22;100.00;100108.06;5214363;28;20079;-71
2023/11/30 08:23:28;;;;;;;113.72;29.17;;;;;;;0.26;100.00;100109.50;5214570;28;20044;-71
2023/11/30 08:25:59;;;;;;;139.65;30.70;;;;;;;0.28;100.00;100102.28;5209248;28;20025;-71
2023/11/30 08:28:30;;;;;;;162.30;28.10;;;;;;;0.27;100.00;100103.25;5212013;28;20028;-71
2023/11/30 08:31:04;;;;;;;112.53;27.02;;;;;;;0.29;100.00;100100.50;5219279;28;20480;-71
2023/11/30 08:33:35;;;;;;;72.47;26.05;;;;;;;0.24;100.00;100103.47;5212333;28;20487;-71
2023/11/30 08:36:06;;;;;;;142.93;30.38;;;;;;;0.29;100.00;100103.13;5216457;28;20059;-71
2023/11/30 08:38:37;;;;;;;101.47;27.80;;;;;;;0.27;100.00;100105.06;5217526;28;20029;-71
2023/11/30 08:41:08;;;;;;;111.85;28.15;;;;;;;0.27;100.00;100108.53;5207521;28;20064;-71
2023/11/30 08:43:38;;;;;;;93.00;27.38;;;;;;;0.34;100.00;100104.44;5208390;28;20024;-71
2023/11/30 08:46:09;;;;;;;69.05;26.95;;;;;;;0.37;100.00;100101.59;5210937;28;20380;-71
2023/11/30 08:48:39;;;;;;;72.82;27.27;;;;;;;0.41;100.00;100112.75;5215997;28;20056;-71
2023/11/30 08:51:10;;;;;;;67.20;26.33;;;;;;;0.46;100.00;100105.31;5202430;28;20391;-71
2023/11/30 08:53:41;;;;;;;74.88;24.92;;;;;;;0.45;100.00;100114.16;5213573;28;20033;-71
2023/11/30 08:56:12;;;;;;;87.40;25.08;;;;;;;0.42;100.00;100102.06;5210992;28;20100;-71
2023/11/30 08:58:43;;;;;;;69.70;25.52;;;;;;;0.44;100.00;100102.78;5208735;28;20022;-71
2023/11/30 09:01:13;;;;;;;100.82;26.50;;;;;;;0.49;100.00;100103.25;5210484;28;20066;-71
2023/11/30 09:03:44;;;;;;;85.45;25.80;;;;;;;0.56;100.00;100113.34;5217293;28;20040;-72
2023/11/30 09:06:15;;;;;;;127.63;26.05;;;;;;;0.59;100.00;100119.22;5210578;28;20203;-71
2023/11/30 09:08:45;;;;;;;92.38;25.27;;;;;;;0.61;100.00;100112.03;5211341;28;20112;-71
2023/11/30 09:11:17;;;;;;;132.52;29.42;;;;;;;0.58;100.00;100101.69;5216080;28;20079;-71
2023/11/30 09:13:47;;;;;;;101.10;24.70;;;;;;;0.58;100.00;100112.25;5216653;28;20025;-71
2023/11/30 09:16:18;;;;;;;104.72;25.77;;;;;;;0.56;100.00;100106.28;5212929;28;20067;-71
2023/11/30 09:18:48;;;;;;;193.07;31.40;;;;;;;0.59;100.00;100115.75;5216220;28;20483;-71
2023/11/30 09:21:19;;;;;;;56.08;24.42;;;;;;;0.60;100.00;100123.53;5211895;28;20471;-71
2023/11/30 09:23:50;;;;;;;113.55;29.58;;;;;;;0.61;100.00;100121.75;5231127;28;20029;-72
2023/11/30 09:26:21;;;;;;;112.53;28.75;;;;;;;0.61;100.00;100119.94;5216955;28;20030;-72
2023/11/30 09:28:52;;;;;;;72.28;27.42;;;;;;;0.65;100.00;100117.88;5212809;28;20033;-71
2023/11/30 09:31:23;;;;;;;117.60;27.40;;;;;;;0.70;100.00;100123.66;5214768;28;20441;-71
2023/11/30 09:33:53;;;;;;;93.78;26.38;;;;;;;0.64;100.00;100127.59;5213369;28;20055;-72
2023/11/30 09:36:24;;;;;;;90.40;27.38;;;;;;;0.70;100.00;100129.78;5212669;28;20040;-72
2023/11/30 09:38:55;;;;;;;82.85;26.83;;;;;;;0.74;100.00;100119.81;5219463;28;20438;-71
2023/11/30 09:41:25;;;;;;;71.25;28.25;;;;;;;0.75;100.00;100127.63;5204083;28;20025;-70
2023/11/30 09:43:55;;;;;;;74.93;29.27;;;;;;;0.80;100.00;100129.03;5211106;28;20028;-71
2023/11/30 09:46:26;;;;;;;77.70;27.35;;;;;;;0.85;100.00;100142.72;5209730;28;20033;-71
2023/11/30 09:48:58;;;;;;;73.85;29.00;;;;;;;0.88;100.00;100132.75;5216385;28;20439;-71
2023/11/30 09:51:29;;;;;;;75.38;27.75;;;;;;;0.90;100.00;100136.09;5215703;28;20162;-73
2023/11/30 09:54:00;;;;;;;74.53;30.30;;;;;;;0.95;100.00;100146.31;5214414;28;20033;-71
2023/11/30 09:56:31;;;;;;;77.05;30.15;;;;;;;0.96;100.00;100148.84;5212536;28;20071;-71
2023/11/30 09:59:02;;;;;;;77.20;31.13;;;;;;;0.99;100.00;100145.94;5214994;28;20480;-70
2023/11/30 10:01:33;;;;;;;74.10;27.73;;;;;;;1.02;100.00;100145.72;5215843;28;20103;-70
2023/11/30 10:04:13;;;;;;;103.07;32.25;;;;;;;1.11;100.00;100151.25;5219742;28;21225;-70
2023/11/30 10:06:47;;;;;;;98.25;31.85;;;;;;;1.15;100.00;100140.28;5213695;28;20033;-70
2023/11/30 10:09:17;;;;;;;95.23;32.57;;;;;;;1.19;100.00;100144.34;5214083;28;20033;-70
2023/11/30 10:11:48;;;;;;;90.38;32.65;;;;;;;1.21;100.00;100145.09;5214037;28;20029;-71
2023/11/30 10:14:19;;;;;;;98.15;31.42;;;;;;;1.31;100.00;100144.34;5217580;28;20025;-71
2023/11/30 10:16:49;;;;;;;89.72;31.33;;;;;;;1.38;100.00;100151.66;5209212;28;20021;-71
2023/11/30 10:19:20;;;;;;;100.32;31.05;;;;;;;1.38;100.00;100145.53;5212387;28;20479;-73
2023/11/30 10:21:50;;;;;;;96.72;31.70;;;;;;;1.41;100.00;100154.06;5209318;28;20024;-71
2023/11/30 10:24:21;;;;;;;104.63;32.67;;;;;;;1.49;100.00;100159.53;5214744;28;20027;-71
2023/11/30 10:26:52;;;;;;;113.22;33.17;;;;;;;1.60;100.00;100160.47;5213212;28;20025;-71
2023/11/30 10:29:23;;;;;;;109.03;33.33;;;;;;;1.59;100.00;100153.50;5208363;28;20479;-71
2023/11/30 10:31:55;;;;;;;106.18;34.38;;;;;;;1.62;100.00;100150.63;5200633;28;20296;-71
2023/11/30 10:34:31;;;;;;;109.90;34.17;;;;;;;1.63;100.00;100153.13;5206547;28;20441;-73
2023/11/30 10:37:02;;;;;;;108.38;34.17;;;;;;;1.63;100.00;100147.00;5215280;28;20029;-71
2023/11/30 10:39:41;;;;;;;131.18;36.13;;;;;;;1.73;100.00;100147.94;5207865;28;20029;-73
2023/11/30 10:42:13;;;;;;;138.32;35.15;;;;;;;1.81;100.00;100153.44;5212970;28;20040;-71
2023/11/30 10:44:47;;;;;;;137.55;36.35;;;;;;;1.87;100.00;100150.28;5214468;28;20036;-70
2023/11/30 10:47:19;;;;;;;155.93;38.83;;;;;;;1.89;100.00;100150.97;5210826;28;20039;-70
2023/11/30 10:49:50;;;;;;;134.85;36.58;;;;;;;1.90;100.00;100147.34;5208824;28;20016;-69
2023/11/30 10:52:22;;;;;;;123.32;37.47;;;;;;;1.99;100.00;100136.00;5221277;28;20036;-71
2023/11/30 10:55:09;;;;;;;118.47;37.40;;;;;;;2.12;100.00;100151.72;5218118;28;20071;-71
2023/11/30 10:57:42;;;;;;;150.82;39.20;;;;;;;2.21;100.00;100153.59;5213604;28;20033;-70
2023/11/30 11:00:14;;;;;;;146.98;35.92;;;;;;;2.29;100.00;100148.47;5221767;28;20033;-71
2023/11/30 11:02:47;;;;;;;117.00;36.28;;;;;;;2.40;100.00;100152.00;5222488;28;20126;-69
2023/11/30 11:05:20;;;;;;;147.32;39.33;;;;;;;2.43;100.00;100144.66;5220355;28;20029;-71
2023/11/30 11:07:52;;;;;;;172.80;36.65;;;;;;;2.49;100.00;100144.13;5216249;28;20024;-71
2023/11/30 11:10:26;;;;;;;128.75;37.88;;;;;;;2.52;100.00;100143.03;5214245;28;20482;-71
2023/11/30 11:12:59;;;;;;;146.75;36.80;;;;;;;2.59;100.00;100149.47;5209605;28;20447;-71
2023/11/30 11:15:31;;;;;;;139.48;37.95;;;;;;;2.57;100.00;100154.06;5209344;28;20037;-71
2023/11/30 11:18:03;;;;;;;201.60;41.08;;;;;;;2.59;100.00;100146.81;5218932;28;20064;-71
2023/11/30 11:20:36;;;;;;;146.20;35.50;;;;;;;2.66;100.00;100150.63;5207241;28;20044;-73